Time;durP1;ratioP1;P1;durP2;ratioP2;P2;SDS_P1;SDS_P2;PMS_P1;PMS_P2;Temp;Humidity;BMP_temperature;BMP_pressure;BME280_temperature;BME280_humidity;BME280_pressure;Samples;Min_cycle;Max_cycle;Signal;HPM_P1;HPM_P2
2022/08/30 00:02:03;;;;;;;9.90;9.60;;;16.60;99.90;;;;;;6256158;22;20213;-82
2022/08/30 00:04:30;;;;;;;9.70;9.40;;;16.60;99.90;;;;;;6257128;22;20200;-82
2022/08/30 00:07:01;;;;;;;9.40;9.10;;;16.50;99.90;;;;;;6257166;22;20210;-81
2022/08/30 00:09:28;;;;;;;9.90;9.60;;;16.50;99.90;;;;;;6257488;22;20194;-81
2022/08/30 00:11:58;;;;;;;9.60;9.30;;;16.50;99.90;;;;;;6259363;22;20212;-81
2022/08/30 00:14:37;;;;;;;9.80;9.50;;;16.50;99.90;;;;;;6260900;22;20202;-82
2022/08/30 00:17:06;;;;;;;9.80;9.50;;;16.50;99.90;;;;;;6262872;22;20296;-80
2022/08/30 00:19:36;;;;;;;9.85;9.55;;;16.50;99.90;;;;;;6271810;22;20212;-82
2022/08/30 00:22:05;;;;;;;9.85;9.55;;;16.50;99.90;;;;;;6264831;22;20229;-82
2022/08/30 00:24:34;;;;;;;9.85;9.55;;;16.60;99.90;;;;;;6265977;22;20195;-82
2022/08/30 00:27:04;;;;;;;9.60;9.30;;;16.50;99.90;;;;;;6269948;22;20209;-81
2022/08/30 00:29:35;;;;;;;9.32;9.02;;;16.40;99.90;;;;;;6265588;22;20201;-81
2022/08/30 00:32:04;;;;;;;9.52;9.23;;;16.40;99.90;;;;;;6274740;22;20246;-81
2022/08/30 00:34:33;;;;;;;9.50;9.20;;;16.40;99.90;;;;;;6277992;22;20194;-82
2022/08/30 00:37:04;;;;;;;9.50;9.20;;;16.40;99.90;;;;;;6277320;22;20193;-81
2022/08/30 00:39:32;;;;;;;9.52;9.23;;;16.40;99.90;;;;;;6278450;22;20198;-80
2022/08/30 00:42:02;;;;;;;9.60;9.30;;;16.40;99.90;;;;;;6279821;22;20193;-82
2022/08/30 00:44:33;;;;;;;9.90;9.60;;;16.40;99.90;;;;;;6279675;22;20199;-82
2022/08/30 00:47:01;;;;;;;9.68;9.38;;;16.30;99.90;;;;;;6280010;22;20185;-81
2022/08/30 00:49:30;;;;;;;9.80;9.50;;;16.30;99.90;;;;;;6280458;22;20179;-81
2022/08/30 00:52:01;;;;;;;9.40;9.10;;;16.30;99.90;;;;;;6280978;22;20198;-81
2022/08/30 00:54:29;;;;;;;9.23;8.93;;;16.30;99.90;;;;;;6279967;22;20182;-80
2022/08/30 00:56:59;;;;;;;9.20;8.90;;;16.30;99.90;;;;;;6279729;22;20193;-81
2022/08/30 00:59:29;;;;;;;9.48;9.18;;;16.30;99.90;;;;;;6279735;22;20230;-81
2022/08/30 01:02:09;;;;;;;9.02;8.80;;;16.30;99.90;;;;;;6278927;22;20217;-81
2022/08/30 01:04:39;;;;;;;9.30;9.00;;;16.30;99.90;;;;;;6279402;22;20216;-81
2022/08/30 01:07:08;;;;;;;9.35;9.05;;;16.30;99.90;;;;;;6271581;22;20225;-81
2022/08/30 01:09:36;;;;;;;9.25;8.95;;;16.30;99.90;;;;;;6260226;22;20206;-82
2022/08/30 01:12:05;;;;;;;9.35;9.05;;;16.30;99.90;;;;;;6259527;22;20232;-81
2022/08/30 01:14:33;;;;;;;9.15;8.85;;;16.30;99.90;;;;;;6258044;22;20281;-82
2022/08/30 01:17:13;;;;;;;8.93;8.73;;;16.10;99.90;;;;;;6257941;22;20241;-82
2022/08/30 01:19:52;;;;;;;9.23;8.93;;;16.20;99.90;;;;;;6258975;22;20213;-82
2022/08/30 01:22:28;;;;;;;9.70;9.40;;;16.10;99.90;;;;;;6258924;22;20198;-80
2022/08/30 01:25:07;;;;;;;9.32;9.02;;;16.10;99.90;;;;;;6258072;22;20268;-82
2022/08/30 01:27:38;;;;;;;9.50;9.20;;;16.10;99.90;;;;;;6258935;22;20202;-82
2022/08/30 01:30:08;;;;;;;9.40;9.10;;;16.10;99.90;;;;;;6260964;22;20221;-81
2022/08/30 01:32:44;;;;;;;8.90;8.70;;;16.00;99.90;;;;;;6260287;22;20255;-82
2022/08/30 01:35:22;;;;;;;9.25;8.95;;;16.00;99.90;;;;;;6259388;22;20292;-81
2022/08/30 01:37:51;;;;;;;9.20;8.90;;;15.90;99.90;;;;;;6260806;22;20187;-82
2022/08/30 01:40:30;;;;;;;9.35;9.05;;;15.80;99.90;;;;;;6260574;22;20200;-82
2022/08/30 01:42:59;;;;;;;9.20;8.90;;;15.80;99.90;;;;;;6260137;22;20256;-82
2022/08/30 01:45:29;;;;;;;9.50;9.20;;;15.70;99.90;;;;;;6259462;22;20210;-82
2022/08/30 01:47:57;;;;;;;9.45;9.15;;;15.70;99.90;;;;;;6260763;22;20229;-82
2022/08/30 01:50:27;;;;;;;9.50;9.20;;;15.80;99.90;;;;;;6260234;22;20206;-81
2022/08/30 01:52:57;;;;;;;9.10;8.80;;;15.80;99.90;;;;;;6261326;22;20314;-81
2022/08/30 01:55:37;;;;;;;9.05;8.85;;;15.80;99.90;;;;;;6260424;22;20293;-82
2022/08/30 01:58:05;;;;;;;9.23;8.93;;;15.80;99.90;;;;;;6262037;22;20196;-81
2022/08/30 02:00:34;;;;;;;8.88;8.68;;;15.70;99.90;;;;;;6262664;22;20233;-81
2022/08/30 02:03:03;;;;;;;9.70;9.40;;;15.70;99.90;;;;;;6262400;22;20245;-82
2022/08/30 02:05:32;;;;;;;9.38;9.07;;;15.80;99.90;;;;;;6262043;22;20206;-82
2022/08/30 02:08:02;;;;;;;9.60;9.30;;;15.80;99.90;;;;;;6263531;22;20251;-81
2022/08/30 02:10:40;;;;;;;9.43;9.13;;;15.80;99.90;;;;;;6266105;22;20234;-81
2022/08/30 02:13:09;;;;;;;9.50;9.20;;;15.80;99.90;;;;;;6272041;22;20197;-81
2022/08/30 02:15:39;;;;;;;9.20;8.90;;;15.80;99.90;;;;;;6263115;22;20202;-82
2022/08/30 02:18:09;;;;;;;9.30;9.00;;;15.80;99.90;;;;;;6263849;22;20198;-79
2022/08/30 02:20:39;;;;;;;9.38;9.07;;;15.80;99.90;;;;;;6269890;22;20191;-81
2022/08/30 02:23:07;;;;;;;9.48;9.18;;;15.90;99.90;;;;;;6267836;22;20208;-80
2022/08/30 02:25:40;;;;;;;9.50;9.20;;;15.90;99.90;;;;;;6273333;22;20195;-80
2022/08/30 02:28:08;;;;;;;9.55;9.25;;;15.90;99.90;;;;;;6280007;22;20218;-79
2022/08/30 02:30:37;;;;;;;9.45;9.15;;;15.80;99.90;;;;;;6280485;22;20218;-78
2022/08/30 02:33:05;;;;;;;9.60;9.30;;;15.80;99.90;;;;;;6280403;22;20190;-79
2022/08/30 02:35:36;;;;;;;9.90;9.60;;;15.70;99.90;;;;;;6278524;22;20206;-78
2022/08/30 02:38:07;;;;;;;9.90;9.60;;;15.70;99.90;;;;;;6280571;22;20191;-76
2022/08/30 02:40:38;;;;;;;9.77;9.48;;;15.60;99.90;;;;;;6280290;22;20186;-79
2022/08/30 02:43:06;;;;;;;9.73;9.43;;;15.60;99.90;;;;;;6280777;22;20194;-78
2022/08/30 02:45:34;;;;;;;9.82;9.52;;;15.60;99.90;;;;;;6279755;22;20209;-79
2022/08/30 02:48:04;;;;;;;10.07;9.77;;;15.50;99.90;;;;;;6278118;22;20264;-79
2022/08/30 02:50:34;;;;;;;9.75;9.45;;;15.50;99.90;;;;;;6275134;22;20249;-80
2022/08/30 02:53:03;;;;;;;9.90;9.60;;;15.50;99.90;;;;;;6274940;22;20203;-80
2022/08/30 02:55:32;;;;;;;9.80;9.50;;;15.60;99.90;;;;;;6275077;22;20213;-79
2022/08/30 02:58:03;;;;;;;9.68;9.38;;;15.60;99.90;;;;;;6277543;22;20206;-79
2022/08/30 03:00:31;;;;;;;9.80;9.50;;;15.60;99.90;;;;;;6276095;22;20197;-79
2022/08/30 03:02:59;;;;;;;9.90;9.60;;;15.60;99.90;;;;;;6276593;22;20209;-80
2022/08/30 03:05:32;;;;;;;9.77;9.48;;;15.60;99.90;;;;;;6273650;22;20202;-79
2022/08/30 03:08:03;;;;;;;9.60;9.30;;;15.60;99.90;;;;;;6273372;22;20183;-79
2022/08/30 03:10:30;;;;;;;9.38;9.07;;;15.60;99.90;;;;;;6272987;22;20186;-79
2022/08/30 03:12:58;;;;;;;9.30;9.00;;;15.50;99.90;;;;;;6273512;22;20221;-80
2022/08/30 03:15:29;;;;;;;9.40;9.10;;;15.60;99.90;;;;;;6263459;22;20214;-80
2022/08/30 03:17:57;;;;;;;9.48;9.18;;;15.60;99.90;;;;;;6259112;22;20198;-80
2022/08/30 03:20:27;;;;;;;9.50;9.20;;;15.60;99.90;;;;;;6258967;22;20222;-80
2022/08/30 03:22:56;;;;;;;9.57;9.27;;;15.60;99.90;;;;;;6259074;22;20201;-80
2022/08/30 03:25:25;;;;;;;9.20;8.90;;;15.60;99.90;;;;;;6273933;22;20190;-79
2022/08/30 03:27:53;;;;;;;9.23;8.93;;;15.60;99.90;;;;;;6280326;22;20182;-78
2022/08/30 03:30:26;;;;;;;9.38;9.07;;;15.50;99.90;;;;;;6263864;22;20221;-81
2022/08/30 03:32:57;;;;;;;9.23;8.93;;;15.50;99.90;;;;;;6258082;22;20190;-80
2022/08/30 03:35:25;;;;;;;8.90;8.70;;;15.40;99.90;;;;;;6257131;22;20202;-80
2022/08/30 03:37:52;;;;;;;9.40;9.10;;;15.40;99.90;;;;;;6257872;22;20214;-80
2022/08/30 03:40:22;;;;;;;9.65;9.35;;;15.40;99.90;;;;;;6257504;22;20269;-80
2022/08/30 03:42:52;;;;;;;9.20;8.90;;;15.30;99.90;;;;;;6257661;22;20229;-80
2022/08/30 03:45:21;;;;;;;9.10;8.80;;;15.30;99.90;;;;;;6256179;22;20209;-80
2022/08/30 03:47:50;;;;;;;9.20;8.90;;;15.30;99.90;;;;;;6257263;22;20698;-81
2022/08/30 03:50:20;;;;;;;9.50;9.20;;;15.20;99.90;;;;;;6257216;22;20305;-80
2022/08/30 03:52:48;;;;;;;9.10;8.80;;;15.20;99.90;;;;;;6257276;22;20218;-80
2022/08/30 03:55:17;;;;;;;9.32;9.02;;;15.20;99.90;;;;;;6256248;22;20218;-80
2022/08/30 03:57:46;;;;;;;9.02;8.75;;;15.10;99.90;;;;;;6257259;22;20221;-80
2022/08/30 04:00:19;;;;;;;9.13;8.82;;;15.10;99.90;;;;;;6257087;22;20214;-80
2022/08/30 04:02:47;;;;;;;9.20;8.90;;;15.10;99.90;;;;;;6257587;22;20205;-80
2022/08/30 04:05:16;;;;;;;9.50;9.20;;;15.00;99.90;;;;;;6256827;22;20755;-81
2022/08/30 04:07:47;;;;;;;9.90;9.60;;;15.00;99.90;;;;;;6259075;22;20209;-80
2022/08/30 04:10:15;;;;;;;10.10;9.80;;;15.00;99.90;;;;;;6261644;22;20202;-80
2022/08/30 04:12:44;;;;;;;9.98;9.68;;;15.00;99.90;;;;;;6267531;22;20221;-80
2022/08/30 04:15:14;;;;;;;10.30;10.00;;;14.90;99.90;;;;;;6266914;22;20206;-80
2022/08/30 04:17:43;;;;;;;9.98;9.68;;;14.90;99.90;;;;;;6260416;22;20190;-80
2022/08/30 04:20:13;;;;;;;10.05;9.75;;;14.90;99.90;;;;;;6259962;22;20194;-80
2022/08/30 04:22:42;;;;;;;10.40;10.10;;;14.90;99.90;;;;;;6258937;22;20206;-80
2022/08/30 04:25:14;;;;;;;10.30;10.00;;;14.90;99.90;;;;;;6257945;22;20202;-79
2022/08/30 04:27:42;;;;;;;10.40;10.10;;;14.90;99.90;;;;;;6258131;22;20273;-80
2022/08/30 04:30:11;;;;;;;10.50;10.20;;;14.80;99.90;;;;;;6258795;22;20212;-81
2022/08/30 04:32:40;;;;;;;10.10;9.80;;;14.80;99.90;;;;;;6258057;22;20202;-80
2022/08/30 04:35:08;;;;;;;10.00;9.70;;;14.80;99.90;;;;;;6257765;22;20218;-80
2022/08/30 04:37:37;;;;;;;10.02;9.73;;;14.80;99.90;;;;;;6258194;22;20202;-80
2022/08/30 04:40:12;;;;;;;10.00;9.70;;;14.80;99.90;;;;;;6258276;22;20193;-80
2022/08/30 04:42:53;;;;;;;10.25;9.95;;;14.70;99.90;;;;;;6258403;22;20206;-80
2022/08/30 04:45:21;;;;;;;10.07;9.77;;;14.70;99.90;;;;;;6257304;22;20209;-80
2022/08/30 04:47:49;;;;;;;9.80;9.50;;;14.70;99.90;;;;;;6258122;22;20197;-80
2022/08/30 04:50:20;;;;;;;10.00;9.70;;;14.70;99.90;;;;;;6258397;22;20214;-80
2022/08/30 04:52:48;;;;;;;9.75;9.45;;;14.70;99.90;;;;;;6257922;22;20210;-80
2022/08/30 04:55:16;;;;;;;9.85;9.55;;;14.80;99.90;;;;;;6257335;22;20238;-80
2022/08/30 04:57:48;;;;;;;9.80;9.50;;;14.80;99.90;;;;;;6265673;22;20202;-80
2022/08/30 05:00:18;;;;;;;9.80;9.50;;;14.80;99.90;;;;;;6260844;22;20221;-81
2022/08/30 05:02:45;;;;;;;9.90;9.60;;;14.80;99.90;;;;;;6261208;22;20233;-80
2022/08/30 05:07:59;;;;;;;9.80;9.50;;;14.80;99.90;;;;;;6260561;22;20273;-80
2022/08/30 05:10:30;;;;;;;9.80;9.50;;;14.80;99.90;;;;;;6259864;22;20214;-80
2022/08/30 05:13:01;;;;;;;9.90;9.60;;;14.80;99.90;;;;;;6260339;22;20194;-80
2022/08/30 05:15:40;;;;;;;10.02;9.73;;;14.80;99.90;;;;;;6256162;22;20258;-83
2022/08/30 05:18:17;;;;;;;10.25;9.95;;;14.80;99.90;;;;;;6228927;23;20191;-85
2022/08/30 05:21:05;;;;;;;10.23;9.93;;;14.80;99.90;;;;;;6229994;23;20229;-85
2022/08/30 05:23:54;;;;;;;9.82;9.52;;;14.90;99.90;;;;;;6226737;23;20221;-86
2022/08/30 05:26:47;;;;;;;9.60;9.30;;;14.80;99.90;;;;;;6217119;23;20203;-86
2022/08/30 05:29:35;;;;;;;9.80;9.50;;;14.80;99.90;;;;;;6199307;23;20992;-85
2022/08/30 05:32:13;;;;;;;9.57;9.27;;;14.80;99.90;;;;;;6199770;23;20192;-85
2022/08/30 05:34:51;;;;;;;9.95;9.65;;;14.90;99.90;;;;;;6198578;23;20250;-87
2022/08/30 05:37:21;;;;;;;9.70;9.40;;;14.90;99.90;;;;;;6199056;23;20211;-86
2022/08/30 05:39:53;;;;;;;9.80;9.50;;;14.90;99.90;;;;;;6198907;23;20207;-86
2022/08/30 05:42:21;;;;;;;9.63;9.32;;;15.00;99.90;;;;;;6199298;23;20199;-86
2022/08/30 05:45:13;;;;;;;9.70;9.40;;;15.10;99.90;;;;;;6198198;23;20288;-86
2022/08/30 05:48:14;;;;;;;9.70;9.40;;;15.10;99.90;;;;;;6198116;23;20274;-86
2022/08/30 05:51:14;;;;;;;9.75;9.45;;;15.20;99.90;;;;;;6196122;23;20206;-85
2022/08/30 05:53:55;;;;;;;9.70;9.40;;;15.40;99.90;;;;;;6200457;23;20199;-86
2022/08/30 06:05:55;;;;;;;10.07;9.77;;;15.80;99.90;;;;;;6196842;23;20207;-86
2022/08/30 06:18:51;;;;;;;10.20;9.90;;;16.30;99.90;;;;;;6190181;23;20209;-86
2022/08/30 06:32:10;;;;;;;10.20;9.90;;;16.90;99.90;;;;;;6072881;23;20202;-84
2022/08/30 06:41:42;;;;;;;10.55;10.25;;;17.20;99.90;;;;;;6075613;23;20191;-86
2022/08/30 06:48:08;;;;;;;10.40;10.10;;;17.40;99.90;;;;;;6195212;23;20203;-86
2022/08/30 06:55:04;;;;;;;10.07;9.77;;;17.70;99.90;;;;;;6194560;23;20199;-86
2022/08/30 07:02:21;;;;;;;10.25;9.95;;;18.10;99.90;;;;;;6107616;23;20237;-86
2022/08/30 07:07:58;;;;;;;10.45;10.15;;;18.50;99.90;;;;;;6193362;23;20218;-86
2022/08/30 07:15:24;;;;;;;10.90;10.60;;;18.70;99.90;;;;;;6072102;23;20202;-86
2022/08/30 07:32:57;;;;;;;10.93;10.63;;;19.20;99.90;;;;;;6086653;23;20240;-86
2022/08/30 07:39:08;;;;;;;11.00;10.70;;;19.50;99.90;;;;;;6133617;23;20252;-86
2022/08/30 07:48:35;;;;;;;10.95;10.65;;;19.90;99.90;;;;;;6134662;23;20208;-87
2022/08/30 07:54:55;;;;;;;11.70;11.30;;;20.30;99.90;;;;;;6134323;23;20207;-87
2022/08/30 08:38:51;;;;;;;10.80;10.50;;;22.10;99.90;;;;;;6201567;23;20282;-86
2022/08/30 08:42:04;;;;;;;11.43;11.02;;;22.40;99.90;;;;;;6202831;23;20203;-85
2022/08/30 09:19:04;;;;;;;11.88;11.48;;;25.30;99.90;;;;;;6190387;23;20281;-85
2022/08/30 09:26:14;;;;;;;11.88;11.48;;;25.60;99.90;;;;;;6157586;23;20214;-86
2022/08/30 09:36:31;;;;;;;11.90;11.50;;;26.80;99.90;;;;;;6223354;22;20206;-86
2022/08/30 11:16:44;;;;;;;12.65;12.25;;;31.30;99.90;;;;;;5857735;22;20222;-83
2022/08/30 11:19:21;;;;;;;12.57;12.18;;;31.50;99.90;;;;;;6262866;22;20214;-82
2022/08/30 11:21:50;;;;;;;12.68;12.27;;;31.60;99.90;;;;;;6261784;22;20201;-82
2022/08/30 11:24:20;;;;;;;12.52;12.13;;;32.00;99.90;;;;;;6260754;22;20285;-83
2022/08/30 11:27:01;;;;;;;12.60;12.20;;;32.00;99.90;;;;;;6260847;22;20214;-82
2022/08/30 11:29:39;;;;;;;12.38;11.98;;;32.10;99.90;;;;;;6265102;22;20196;-82
2022/08/30 11:33:01;;;;;;;12.50;12.10;;;31.60;99.90;;;;;;6263323;22;20190;-82
2022/08/30 11:35:48;;;;;;;12.25;11.85;;;31.60;99.90;;;;;;6269745;22;20201;-82
2022/08/30 11:39:09;;;;;;;12.50;12.10;;;31.60;99.90;;;;;;6269980;22;20202;-82
2022/08/30 11:41:39;;;;;;;12.45;12.05;;;32.20;99.90;;;;;;6265310;22;20187;-82
2022/08/30 11:44:30;;;;;;;12.40;12.00;;;32.50;99.90;;;;;;6264500;22;20262;-82
2022/08/30 11:47:02;;;;;;;12.65;12.25;;;32.60;99.90;;;;;;6262387;22;20204;-82
2022/08/30 11:50:01;;;;;;;12.20;11.80;;;32.50;99.90;;;;;;6262079;22;20192;-81
2022/08/30 11:52:45;;;;;;;11.95;11.55;;;32.60;99.90;;;;;;6261066;22;20190;-82
2022/08/30 11:55:50;;;;;;;12.15;11.75;;;32.90;99.90;;;;;;6260971;22;20194;-82
2022/08/30 11:58:38;;;;;;;12.00;11.60;;;32.70;99.90;;;;;;6257438;22;20212;-82
2022/08/30 12:01:24;;;;;;;12.20;11.80;;;32.90;99.90;;;;;;6260317;22;20269;-82
2022/08/30 12:04:03;;;;;;;12.43;12.02;;;33.10;99.90;;;;;;6260342;22;20257;-82
2022/08/30 12:07:08;;;;;;;12.57;12.18;;;33.50;99.90;;;;;;6259214;22;20193;-82
2022/08/30 12:10:13;;;;;;;12.40;12.00;;;33.70;99.90;;;;;;6166836;23;20259;-82
2022/08/30 12:13:00;;;;;;;12.40;12.00;;;33.60;99.90;;;;;;6259911;22;20198;-81
2022/08/30 12:15:55;;;;;;;12.55;12.15;;;33.70;99.90;;;;;;6259445;22;20186;-81
2022/08/30 12:18:33;;;;;;;12.40;12.00;;;33.90;99.90;;;;;;6259052;22;20292;-82
2022/08/30 12:21:11;;;;;;;12.65;12.25;;;33.90;99.90;;;;;;6259226;22;20199;-82
2022/08/30 12:23:49;;;;;;;12.38;11.98;;;33.50;99.90;;;;;;6260167;22;20194;-81
2022/08/30 12:26:31;;;;;;;11.57;11.18;;;33.50;99.90;;;;;;6260254;22;20186;-81
2022/08/30 12:29:33;;;;;;;11.52;11.13;;;32.70;99.90;;;;;;6260808;22;20190;-80
2022/08/30 12:32:06;;;;;;;11.77;11.38;;;32.60;99.90;;;;;;6260340;22;20186;-81
2022/08/30 12:34:42;;;;;;;11.20;10.90;;;32.40;99.90;;;;;;6260322;22;20230;-81
2022/08/30 12:37:28;;;;;;;11.60;11.20;;;31.70;99.90;;;;;;6260115;22;20201;-81
2022/08/30 12:40:07;;;;;;;11.95;11.55;;;31.80;99.90;;;;;;6259297;22;20197;-80
2022/08/30 12:42:40;;;;;;;11.68;11.27;;;32.10;99.90;;;;;;6260265;22;20213;-80
2022/08/30 12:45:15;;;;;;;11.90;11.50;;;32.10;99.90;;;;;;6258684;22;20202;-81
2022/08/30 12:47:47;;;;;;;11.90;11.50;;;31.90;99.90;;;;;;6259268;22;20284;-81
2022/08/30 12:50:23;;;;;;;11.68;11.27;;;31.80;99.90;;;;;;6270149;22;20209;-81
2022/08/30 12:53:00;;;;;;;12.00;11.60;;;31.70;99.90;;;;;;6261904;22;20186;-80
2022/08/30 12:55:31;;;;;;;12.00;11.60;;;31.40;99.90;;;;;;6261100;22;20213;-81
2022/08/30 12:58:09;;;;;;;11.93;11.52;;;31.70;99.90;;;;;;6261332;22;20285;-81
2022/08/30 13:00:47;;;;;;;12.02;11.63;;;32.10;99.90;;;;;;6261159;22;20201;-81
2022/08/30 13:03:33;;;;;;;11.93;11.52;;;32.30;99.90;;;;;;6259627;22;20193;-80
2022/08/30 13:06:03;;;;;;;11.90;11.50;;;32.30;99.90;;;;;;6259324;22;20195;-81
2022/08/30 13:08:35;;;;;;;12.07;11.68;;;32.40;99.90;;;;;;6260042;22;20206;-83
2022/08/30 13:11:10;;;;;;;11.90;11.50;;;32.50;99.90;;;;;;6260263;22;20215;-81
2022/08/30 13:13:49;;;;;;;12.00;11.60;;;32.60;99.90;;;;;;6260066;22;20290;-82
2022/08/30 13:16:38;;;;;;;11.90;11.50;;;32.60;99.90;;;;;;6259669;22;20241;-80
2022/08/30 13:19:33;;;;;;;11.90;11.50;;;32.00;99.90;;;;;;6261104;22;20197;-82
2022/08/30 13:22:02;;;;;;;11.90;11.50;;;32.30;99.90;;;;;;6260286;22;20198;-81
2022/08/30 13:24:30;;;;;;;11.95;11.55;;;32.60;99.90;;;;;;6260478;22;20194;-81
2022/08/30 13:27:10;;;;;;;11.95;11.55;;;32.90;99.90;;;;;;6261120;22;20202;-81
2022/08/30 13:29:39;;;;;;;11.85;11.45;;;32.70;99.90;;;;;;6262384;22;20217;-80
2022/08/30 13:32:12;;;;;;;11.65;11.25;;;32.10;99.90;;;;;;6261363;22;20198;-80
2022/08/30 13:34:40;;;;;;;11.68;11.27;;;32.30;99.90;;;;;;6261064;22;20189;-82
2022/08/30 13:37:18;;;;;;;11.80;11.40;;;32.40;99.90;;;;;;6261468;22;20194;-81
2022/08/30 13:39:46;;;;;;;11.98;11.57;;;32.60;99.90;;;;;;6261756;22;20197;-81
2022/08/30 13:42:14;;;;;;;12.20;11.80;;;32.80;99.90;;;;;;6261308;22;20229;-81
2022/08/30 13:44:44;;;;;;;11.90;11.50;;;33.10;99.90;;;;;;6260573;22;20233;-79
2022/08/30 13:47:23;;;;;;;11.77;11.38;;;33.20;99.90;;;;;;6260756;22;20278;-80
2022/08/30 13:49:51;;;;;;;11.60;11.20;;;32.90;99.90;;;;;;6261261;22;20262;-80
2022/08/30 13:52:23;;;;;;;11.13;10.82;;;32.60;99.90;;;;;;6261416;22;20289;-81
2022/08/30 13:54:51;;;;;;;11.20;10.90;;;32.70;99.90;;;;;;6260623;22;20201;-81
2022/08/30 13:57:28;;;;;;;11.10;10.80;;;32.90;99.90;;;;;;6262259;22;20194;-80
2022/08/30 13:59:57;;;;;;;11.60;11.20;;;33.20;99.90;;;;;;6261722;22;20225;-81
2022/08/30 14:02:35;;;;;;;11.80;11.40;;;33.60;99.90;;;;;;6260641;22;20206;-81
2022/08/30 14:05:06;;;;;;;11.20;10.90;;;33.90;99.90;;;;;;6259172;22;20257;-81
2022/08/30 14:07:35;;;;;;;12.20;11.80;;;34.10;99.90;;;;;;6259746;22;20206;-81
2022/08/30 14:10:04;;;;;;;12.30;11.90;;;34.40;99.90;;;;;;6260525;22;20198;-82
2022/08/30 14:12:33;;;;;;;12.40;12.00;;;34.40;99.90;;;;;;6261208;22;20210;-81
2022/08/30 14:15:03;;;;;;;12.40;12.00;;;34.20;99.90;;;;;;6259730;22;20201;-80
2022/08/30 14:17:34;;;;;;;12.20;11.80;;;34.40;99.90;;;;;;6261150;22;20197;-81
2022/08/30 14:20:02;;;;;;;12.18;11.77;;;34.40;99.90;;;;;;6260694;22;20269;-81
2022/08/30 14:22:31;;;;;;;12.20;11.80;;;34.20;99.90;;;;;;6261007;22;20195;-81
2022/08/30 14:25:00;;;;;;;12.15;11.75;;;34.20;99.90;;;;;;6259461;22;20202;-81
2022/08/30 14:27:30;;;;;;;12.38;11.98;;;34.60;99.90;;;;;;6259262;22;20215;-81
2022/08/30 14:30:00;;;;;;;12.30;11.90;;;34.80;99.90;;;;;;6260102;22;20233;-80
2022/08/30 14:32:30;;;;;;;12.30;11.90;;;35.10;99.90;;;;;;6260036;22;20232;-80
2022/08/30 14:35:04;;;;;;;12.15;11.75;;;34.90;99.90;;;;;;6259195;22;20273;-81
2022/08/30 14:37:31;;;;;;;12.20;11.80;;;34.90;99.90;;;;;;6260786;22;20226;-81
2022/08/30 14:39:59;;;;;;;11.90;11.50;;;34.90;99.90;;;;;;6260784;22;20207;-80
2022/08/30 14:42:29;;;;;;;11.77;11.38;;;34.40;99.90;;;;;;6260701;22;20197;-80
2022/08/30 14:44:58;;;;;;;11.70;11.30;;;34.20;99.90;;;;;;6260344;22;20202;-80
2022/08/30 14:47:28;;;;;;;11.55;11.15;;;34.20;99.90;;;;;;6260663;22;20204;-80
2022/08/30 14:49:59;;;;;;;11.50;11.18;;;34.40;99.90;;;;;;6271765;22;20209;-80
2022/08/30 14:52:35;;;;;;;11.80;11.40;;;34.50;99.90;;;;;;6262649;22;20186;-81
2022/08/30 14:55:07;;;;;;;11.77;11.38;;;34.60;99.90;;;;;;6261641;22;20249;-80
2022/08/30 14:57:34;;;;;;;11.68;11.27;;;34.20;99.90;;;;;;6261595;22;20281;-80
2022/08/30 15:00:03;;;;;;;11.73;11.32;;;34.20;99.90;;;;;;6261777;22;20200;-80
2022/08/30 15:02:34;;;;;;;11.30;11.00;;;34.00;99.90;;;;;;6261773;22;20248;-80
2022/08/30 15:05:03;;;;;;;10.93;10.63;;;33.80;99.90;;;;;;6260235;22;20208;-80
2022/08/30 15:07:34;;;;;;;11.00;10.70;;;33.40;99.90;;;;;;6262415;22;20280;-81
2022/08/30 15:10:02;;;;;;;11.05;10.75;;;33.10;99.90;;;;;;6265904;22;20201;-80
2022/08/30 15:12:31;;;;;;;10.90;10.60;;;32.70;99.90;;;;;;6278753;22;20201;-80
2022/08/30 15:15:00;;;;;;;10.93;10.63;;;32.20;99.90;;;;;;6278519;22;20191;-81
2022/08/30 15:17:30;;;;;;;10.80;10.50;;;31.80;99.90;;;;;;6279925;22;20246;-81
2022/08/30 15:19:59;;;;;;;11.25;10.95;;;31.50;99.90;;;;;;6280376;22;20178;-81
2022/08/30 15:22:28;;;;;;;11.55;11.23;;;31.50;99.90;;;;;;6280650;22;20178;-81
2022/08/30 15:25:06;;;;;;;11.38;11.07;;;31.50;99.90;;;;;;6280016;22;20245;-81
2022/08/30 15:27:36;;;;;;;11.40;11.10;;;31.80;99.90;;;;;;6277764;22;20194;-79
2022/08/30 15:30:05;;;;;;;11.30;11.00;;;32.00;99.90;;;;;;6278862;22;20197;-80
2022/08/30 15:32:35;;;;;;;11.70;11.30;;;32.20;99.90;;;;;;6277306;22;20177;-80
2022/08/30 15:35:04;;;;;;;10.85;10.55;;;32.60;99.90;;;;;;6273975;22;20213;-81
2022/08/30 15:37:34;;;;;;;11.00;10.70;;;32.90;99.90;;;;;;6272932;22;20206;-80
2022/08/30 15:40:13;;;;;;;11.20;10.90;;;33.40;99.90;;;;;;6272460;22;20206;-81
2022/08/30 15:42:42;;;;;;;11.20;10.90;;;33.70;99.90;;;;;;6271962;22;20201;-81
2022/08/30 15:45:11;;;;;;;11.15;10.85;;;33.90;99.90;;;;;;6269417;22;20213;-81
2022/08/30 15:47:40;;;;;;;11.10;10.80;;;34.20;99.90;;;;;;6270925;22;20198;-81
2022/08/30 15:50:10;;;;;;;11.20;10.90;;;34.50;99.90;;;;;;6267652;22;20278;-81
2022/08/30 15:52:39;;;;;;;11.10;10.80;;;34.40;99.90;;;;;;6269018;22;20198;-81
2022/08/30 15:55:11;;;;;;;11.07;10.77;;;34.30;99.90;;;;;;6262197;22;20281;-81
2022/08/30 15:57:38;;;;;;;10.88;10.57;;;34.30;99.90;;;;;;6264193;22;20222;-80
2022/08/30 16:00:08;;;;;;;11.30;11.00;;;34.20;99.90;;;;;;6268134;22;20253;-81
2022/08/30 16:02:37;;;;;;;11.13;10.82;;;34.20;99.90;;;;;;6277910;22;20199;-80
2022/08/30 16:05:06;;;;;;;11.18;10.88;;;34.20;99.90;;;;;;6277201;22;20217;-80
2022/08/30 16:07:36;;;;;;;11.10;10.80;;;34.10;99.90;;;;;;6270557;22;20206;-82
2022/08/30 16:10:05;;;;;;;11.00;10.70;;;34.00;99.90;;;;;;6263996;22;20222;-80
2022/08/30 16:12:45;;;;;;;11.30;11.00;;;33.90;99.90;;;;;;6264072;22;20194;-80
2022/08/30 16:15:13;;;;;;;11.20;10.90;;;33.70;99.90;;;;;;6262506;22;21032;-81
2022/08/30 16:17:43;;;;;;;11.07;10.77;;;33.40;99.90;;;;;;6261950;22;20206;-81
2022/08/30 16:20:12;;;;;;;11.20;10.90;;;33.10;99.90;;;;;;6263187;22;20202;-81
2022/08/30 16:22:41;;;;;;;10.60;10.30;;;33.20;99.90;;;;;;6262487;22;20209;-80
2022/08/30 16:25:11;;;;;;;10.50;10.20;;;33.50;99.90;;;;;;6260494;22;20309;-80
2022/08/30 16:27:52;;;;;;;10.45;10.15;;;33.70;99.90;;;;;;6261598;22;20214;-80
2022/08/30 16:30:19;;;;;;;10.60;10.30;;;34.00;99.90;;;;;;6263881;22;20237;-80
2022/08/30 16:32:48;;;;;;;10.38;10.07;;;34.20;99.90;;;;;;6261223;22;20194;-81
2022/08/30 16:35:21;;;;;;;10.60;10.30;;;34.20;99.90;;;;;;6260505;22;20216;-80
2022/08/30 16:37:49;;;;;;;10.45;10.15;;;34.20;99.90;;;;;;6261700;22;20236;-82
2022/08/30 16:40:18;;;;;;;10.80;10.50;;;34.20;99.90;;;;;;6261264;22;20198;-82
2022/08/30 16:42:50;;;;;;;10.50;10.20;;;34.30;99.90;;;;;;6263565;22;20237;-82
2022/08/30 16:45:27;;;;;;;10.82;10.52;;;34.50;99.90;;;;;;6260953;22;20202;-81
2022/08/30 16:47:55;;;;;;;10.45;10.15;;;34.50;99.90;;;;;;6266572;22;20245;-81
2022/08/30 16:50:25;;;;;;;10.80;10.50;;;34.50;99.90;;;;;;6268711;22;20198;-81
2022/08/30 16:52:54;;;;;;;10.60;10.30;;;34.40;99.90;;;;;;6263439;22;20200;-81
2022/08/30 16:55:24;;;;;;;10.52;10.23;;;34.20;99.90;;;;;;6261837;22;20190;-82
2022/08/30 16:57:56;;;;;;;10.48;10.18;;;34.10;99.90;;;;;;6261562;22;20241;-82
2022/08/30 17:00:23;;;;;;;10.32;10.02;;;33.90;99.90;;;;;;6262315;22;21026;-82
2022/08/30 17:02:54;;;;;;;10.60;10.30;;;33.70;99.90;;;;;;6262318;22;20201;-81
2022/08/30 17:05:22;;;;;;;10.20;9.90;;;33.40;99.90;;;;;;6261465;22;20204;-81
2022/08/30 17:07:51;;;;;;;10.48;10.18;;;33.00;99.90;;;;;;6261662;22;20206;-81
2022/08/30 17:10:20;;;;;;;10.60;10.30;;;32.40;99.90;;;;;;6261516;22;20194;-82
2022/08/30 17:12:50;;;;;;;10.55;10.25;;;32.10;99.90;;;;;;6261547;22;20202;-81
2022/08/30 17:15:19;;;;;;;10.50;10.20;;;31.80;99.90;;;;;;6259189;22;20257;-81
2022/08/30 17:28:23;;;;;;;10.00;9.70;;;29.40;99.90;;;;;;6109227;23;20312;-87
2022/08/30 17:31:57;;;;;;;10.50;10.20;;;29.10;99.90;;;;;;6148696;23;20204;-86
2022/08/30 18:04:02;;;;;;;10.00;9.70;;;26.40;99.90;;;;;;5915572;24;20397;-86
2022/08/30 18:38:37;;;;;;;9.45;9.15;;;24.60;99.90;;;;;;6195940;23;20200;-86
2022/08/30 19:20:50;;;;;;;;;;;;;;;;;;;;;
2022/08/30 19:26:52;;;;;;;9.80;9.50;;;22.70;99.90;;;;;;6217616;22;20195;-86
2022/08/30 19:33:42;;;;;;;;;;;;;;;;;;;;;
2022/08/30 19:40:39;;;;;;;9.70;9.40;;;22.50;99.90;;;;;;6158962;23;20222;-86
2022/08/30 19:50:41;;;;;;;9.80;9.50;;;22.10;99.90;;;;;;5991617;23;20200;-86
2022/08/30 19:57:32;;;;;;;9.57;9.27;;;21.90;99.90;;;;;;6074459;23;20201;-87
2022/08/30 20:10:50;;;;;;;9.18;8.93;;;21.70;99.90;;;;;;6137635;23;20251;-86
2022/08/30 20:13:23;;;;;;;9.20;8.90;;;21.60;99.90;;;;;;6196636;23;20697;-86